St. John's, Canada
Current Conditions -  °F | °C
As of 7:00 AM on Sunday 21 Dec 2014 (Local Time) from CYYT Reporting Station
Overcast Overcast  
Wind Chill: 18°   Ceiling: 1900
Heat Index: 28°   Visibility: 15mi
Dew Point: 23°   Wind: 12mph
Humidity: 80%   Direction: 30°NNE
Pressure: 30.22"   Gusts: 22mph
Location:  47.58°N, 52.7°W
Report Text: CYYT 211000Z 03010G19KT 15SM OVC019 M02/M05 A3022 RMK SC8 SLP240
Loading
Personal Weather Stations






























Interactive Weather Map New forecast layout! Learn more

10-Day Weather Forecast

Advertisements
Track Severe Weather on mobile